sensor_id;sensor_type;location;lat;lon;timestamp;P1;durP1;ratioP1;P2;durP2;ratioP2
7703;SDS011;3894;49.700;10.770;2023-07-29T00:00:38;6.97;;;2.05;;
7703;SDS011;3894;49.700;10.770;2023-07-29T00:03:04;7.15;;;1.42;;
7703;SDS011;3894;49.700;10.770;2023-07-29T00:05:30;5.38;;;1.98;;
7703;SDS011;3894;49.700;10.770;2023-07-29T00:07:55;7.07;;;1.30;;
7703;SDS011;3894;49.700;10.770;2023-07-29T00:10:22;5.78;;;1.50;;
7703;SDS011;3894;49.700;10.770;2023-07-29T00:12:48;4.50;;;1.52;;
7703;SDS011;3894;49.700;10.770;2023-07-29T00:15:13;4.38;;;1.30;;
7703;SDS011;3894;49.700;10.770;2023-07-29T00:17:39;5.70;;;1.60;;
7703;SDS011;3894;49.700;10.770;2023-07-29T00:20:05;4.57;;;1.65;;
7703;SDS011;3894;49.700;10.770;2023-07-29T00:22:31;3.88;;;1.00;;
7703;SDS011;3894;49.700;10.770;2023-07-29T00:24:57;5.75;;;2.20;;
7703;SDS011;3894;49.700;10.770;2023-07-29T00:27:24;4.85;;;1.52;;
7703;SDS011;3894;49.700;10.770;2023-07-29T00:29:49;4.60;;;1.40;;
7703;SDS011;3894;49.700;10.770;2023-07-29T00:32:15;4.60;;;1.58;;
7703;SDS011;3894;49.700;10.770;2023-07-29T00:34:40;6.03;;;1.70;;
7703;SDS011;3894;49.700;10.770;2023-07-29T00:37:06;5.00;;;1.90;;
7703;SDS011;3894;49.700;10.770;2023-07-29T00:39:32;5.05;;;1.63;;
7703;SDS011;3894;49.700;10.770;2023-07-29T00:41:57;4.85;;;1.63;;
7703;SDS011;3894;49.700;10.770;2023-07-29T00:44:23;4.40;;;1.73;;
7703;SDS011;3894;49.700;10.770;2023-07-29T00:46:49;4.97;;;1.75;;
7703;SDS011;3894;49.700;10.770;2023-07-29T00:49:17;6.78;;;1.73;;
7703;SDS011;3894;49.700;10.770;2023-07-29T00:51:43;4.50;;;1.52;;
7703;SDS011;3894;49.700;10.770;2023-07-29T00:54:08;5.07;;;1.88;;
7703;SDS011;3894;49.700;10.770;2023-07-29T00:56:34;6.25;;;2.10;;
7703;SDS011;3894;49.700;10.770;2023-07-29T00:59:00;5.05;;;2.05;;
7703;SDS011;3894;49.700;10.770;2023-07-29T01:01:27;5.15;;;1.92;;
7703;SDS011;3894;49.700;10.770;2023-07-29T01:03:53;4.63;;;1.70;;
7703;SDS011;3894;49.700;10.770;2023-07-29T01:09:04;5.90;;;2.05;;
7703;SDS011;3894;49.700;10.770;2023-07-29T01:11:41;6.45;;;2.03;;
7703;SDS011;3894;49.700;10.770;2023-07-29T01:14:37;4.78;;;1.90;;
7703;SDS011;3894;49.700;10.770;2023-07-29T01:17:13;6.50;;;1.90;;
7703;SDS011;3894;49.700;10.770;2023-07-29T01:19:48;4.40;;;2.15;;
7703;SDS011;3894;49.700;10.770;2023-07-29T01:22:35;5.43;;;1.85;;
7703;SDS011;3894;49.700;10.770;2023-07-29T01:25:02;5.13;;;1.90;;
7703;SDS011;3894;49.700;10.770;2023-07-29T01:27:28;6.15;;;1.88;;
7703;SDS011;3894;49.700;10.770;2023-07-29T01:29:55;5.32;;;2.22;;
7703;SDS011;3894;49.700;10.770;2023-07-29T01:32:28;6.03;;;2.55;;
7703;SDS011;3894;49.700;10.770;2023-07-29T01:38:08;5.28;;;2.05;;
7703;SDS011;3894;49.700;10.770;2023-07-29T01:40:39;7.60;;;1.95;;
7703;SDS011;3894;49.700;10.770;2023-07-29T01:43:06;4.78;;;1.75;;
7703;SDS011;3894;49.700;10.770;2023-07-29T01:45:33;4.93;;;1.75;;
7703;SDS011;3894;49.700;10.770;2023-07-29T01:48:03;5.00;;;2.22;;
7703;SDS011;3894;49.700;10.770;2023-07-29T01:50:29;4.80;;;1.65;;
7703;SDS011;3894;49.700;10.770;2023-07-29T01:52:56;5.55;;;2.10;;
7703;SDS011;3894;49.700;10.770;2023-07-29T01:55:22;5.10;;;2.10;;
7703;SDS011;3894;49.700;10.770;2023-07-29T01:57:48;4.88;;;1.85;;
7703;SDS011;3894;49.700;10.770;2023-07-29T02:00:13;5.65;;;2.35;;
7703;SDS011;3894;49.700;10.770;2023-07-29T02:02:39;4.75;;;1.83;;
7703;SDS011;3894;49.700;10.770;2023-07-29T02:05:05;4.93;;;1.75;;
7703;SDS011;3894;49.700;10.770;2023-07-29T02:07:31;5.10;;;1.58;;
7703;SDS011;3894;49.700;10.770;2023-07-29T02:09:56;5.43;;;1.75;;
7703;SDS011;3894;49.700;10.770;2023-07-29T02:12:22;5.40;;;1.63;;
7703;SDS011;3894;49.700;10.770;2023-07-29T02:14:47;6.57;;;2.10;;
7703;SDS011;3894;49.700;10.770;2023-07-29T02:17:13;5.55;;;2.00;;
7703;SDS011;3894;49.700;10.770;2023-07-29T02:19:38;5.07;;;1.90;;
7703;SDS011;3894;49.700;10.770;2023-07-29T02:22:04;6.30;;;1.83;;
7703;SDS011;3894;49.700;10.770;2023-07-29T02:24:29;5.65;;;1.83;;
7703;SDS011;3894;49.700;10.770;2023-07-29T02:26:55;4.45;;;1.38;;
7703;SDS011;3894;49.700;10.770;2023-07-29T02:29:21;5.93;;;2.03;;
7703;SDS011;3894;49.700;10.770;2023-07-29T02:31:46;6.65;;;1.88;;
7703;SDS011;3894;49.700;10.770;2023-07-29T02:34:12;5.13;;;1.83;;
7703;SDS011;3894;49.700;10.770;2023-07-29T02:36:38;5.63;;;2.03;;
7703;SDS011;3894;49.700;10.770;2023-07-29T02:39:03;7.30;;;2.28;;
7703;SDS011;3894;49.700;10.770;2023-07-29T02:41:29;5.93;;;2.03;;
7703;SDS011;3894;49.700;10.770;2023-07-29T02:43:55;8.13;;;2.25;;
7703;SDS011;3894;49.700;10.770;2023-07-29T02:46:20;6.45;;;1.98;;
7703;SDS011;3894;49.700;10.770;2023-07-29T02:48:46;4.72;;;1.85;;
7703;SDS011;3894;49.700;10.770;2023-07-29T02:51:11;4.90;;;1.95;;
7703;SDS011;3894;49.700;10.770;2023-07-29T02:53:37;19.77;;;2.33;;
7703;SDS011;3894;49.700;10.770;2023-07-29T02:56:03;5.78;;;2.00;;
7703;SDS011;3894;49.700;10.770;2023-07-29T02:58:29;5.00;;;1.90;;
7703;SDS011;3894;49.700;10.770;2023-07-29T03:01:01;5.70;;;2.05;;
7703;SDS011;3894;49.700;10.770;2023-07-29T03:03:27;4.95;;;2.10;;
7703;SDS011;3894;49.700;10.770;2023-07-29T03:06:00;5.22;;;1.55;;
7703;SDS011;3894;49.700;10.770;2023-07-29T03:08:26;5.18;;;1.83;;
7703;SDS011;3894;49.700;10.770;2023-07-29T03:10:52;5.40;;;2.05;;
7703;SDS011;3894;49.700;10.770;2023-07-29T03:13:18;5.50;;;1.90;;
7703;SDS011;3894;49.700;10.770;2023-07-29T03:15:44;8.60;;;2.35;;
7703;SDS011;3894;49.700;10.770;2023-07-29T03:18:09;6.47;;;2.28;;
7703;SDS011;3894;49.700;10.770;2023-07-29T03:20:35;4.95;;;1.73;;
7703;SDS011;3894;49.700;10.770;2023-07-29T03:23:00;5.45;;;2.50;;
7703;SDS011;3894;49.700;10.770;2023-07-29T03:25:26;4.75;;;1.95;;
7703;SDS011;3894;49.700;10.770;2023-07-29T03:27:51;7.13;;;1.88;;
7703;SDS011;3894;49.700;10.770;2023-07-29T03:30:21;5.68;;;2.17;;
7703;SDS011;3894;49.700;10.770;2023-07-29T03:32:47;4.90;;;2.28;;
7703;SDS011;3894;49.700;10.770;2023-07-29T03:35:14;8.82;;;2.25;;
7703;SDS011;3894;49.700;10.770;2023-07-29T03:37:39;5.30;;;2.30;;
7703;SDS011;3894;49.700;10.770;2023-07-29T03:40:06;6.85;;;2.38;;
7703;SDS011;3894;49.700;10.770;2023-07-29T03:42:32;6.93;;;2.53;;
7703;SDS011;3894;49.700;10.770;2023-07-29T03:44:58;5.70;;;2.20;;
7703;SDS011;3894;49.700;10.770;2023-07-29T03:47:23;5.95;;;2.15;;
7703;SDS011;3894;49.700;10.770;2023-07-29T03:49:49;6.40;;;2.55;;
7703;SDS011;3894;49.700;10.770;2023-07-29T03:52:15;5.90;;;2.40;;
7703;SDS011;3894;49.700;10.770;2023-07-29T03:54:40;5.57;;;2.30;;
7703;SDS011;3894;49.700;10.770;2023-07-29T03:57:06;7.65;;;2.45;;
7703;SDS011;3894;49.700;10.770;2023-07-29T03:59:31;6.05;;;2.40;;
7703;SDS011;3894;49.700;10.770;2023-07-29T04:01:57;5.53;;;2.22;;
7703;SDS011;3894;49.700;10.770;2023-07-29T04:04:22;6.90;;;2.60;;
7703;SDS011;3894;49.700;10.770;2023-07-29T04:06:48;5.07;;;2.05;;
7703;SDS011;3894;49.700;10.770;2023-07-29T04:09:14;5.85;;;2.72;;
7703;SDS011;3894;49.700;10.770;2023-07-29T04:11:39;5.63;;;2.45;;
7703;SDS011;3894;49.700;10.770;2023-07-29T04:14:05;6.07;;;2.90;;
7703;SDS011;3894;49.700;10.770;2023-07-29T04:16:30;5.40;;;1.98;;
7703;SDS011;3894;49.700;10.770;2023-07-29T04:18:56;5.40;;;2.65;;
7703;SDS011;3894;49.700;10.770;2023-07-29T04:21:21;5.70;;;2.03;;
7703;SDS011;3894;49.700;10.770;2023-07-29T04:23:47;5.82;;;2.58;;
7703;SDS011;3894;49.700;10.770;2023-07-29T04:26:12;6.00;;;2.42;;
7703;SDS011;3894;49.700;10.770;2023-07-29T04:28:38;5.90;;;2.72;;
7703;SDS011;3894;49.700;10.770;2023-07-29T04:31:03;7.15;;;2.92;;
7703;SDS011;3894;49.700;10.770;2023-07-29T04:33:29;5.63;;;2.75;;
7703;SDS011;3894;49.700;10.770;2023-07-29T04:35:55;5.32;;;2.45;;
7703;SDS011;3894;49.700;10.770;2023-07-29T04:38:21;5.57;;;2.40;;
7703;SDS011;3894;49.700;10.770;2023-07-29T04:40:50;6.50;;;2.95;;
7703;SDS011;3894;49.700;10.770;2023-07-29T04:43:16;5.00;;;2.08;;
7703;SDS011;3894;49.700;10.770;2023-07-29T04:45:42;5.93;;;2.72;;
7703;SDS011;3894;49.700;10.770;2023-07-29T04:48:10;5.70;;;2.60;;
7703;SDS011;3894;49.700;10.770;2023-07-29T04:50:36;5.63;;;2.38;;
7703;SDS011;3894;49.700;10.770;2023-07-29T04:53:01;5.90;;;2.28;;
7703;SDS011;3894;49.700;10.770;2023-07-29T04:55:27;5.43;;;2.38;;
7703;SDS011;3894;49.700;10.770;2023-07-29T04:57:52;8.05;;;2.78;;
7703;SDS011;3894;49.700;10.770;2023-07-29T05:00:18;5.85;;;2.50;;
7703;SDS011;3894;49.700;10.770;2023-07-29T05:02:44;8.27;;;2.95;;
7703;SDS011;3894;49.700;10.770;2023-07-29T05:05:09;7.10;;;3.92;;
7703;SDS011;3894;49.700;10.770;2023-07-29T05:07:35;7.72;;;3.70;;
7703;SDS011;3894;49.700;10.770;2023-07-29T05:10:00;7.32;;;3.28;;
7703;SDS011;3894;49.700;10.770;2023-07-29T05:12:26;6.53;;;2.53;;
7703;SDS011;3894;49.700;10.770;2023-07-29T05:14:51;5.10;;;2.22;;
7703;SDS011;3894;49.700;10.770;2023-07-29T05:17:17;5.55;;;2.38;;
7703;SDS011;3894;49.700;10.770;2023-07-29T05:19:43;6.00;;;2.22;;
7703;SDS011;3894;49.700;10.770;2023-07-29T05:22:09;6.40;;;2.53;;
7703;SDS011;3894;49.700;10.770;2023-07-29T05:24:35;7.05;;;2.50;;
7703;SDS011;3894;49.700;10.770;2023-07-29T05:27:01;7.85;;;3.00;;
7703;SDS011;3894;49.700;10.770;2023-07-29T05:29:27;6.55;;;2.55;;
7703;SDS011;3894;49.700;10.770;2023-07-29T05:31:52;8.27;;;2.92;;
7703;SDS011;3894;49.700;10.770;2023-07-29T05:34:18;7.63;;;2.60;;
7703;SDS011;3894;49.700;10.770;2023-07-29T05:36:44;6.32;;;2.72;;
7703;SDS011;3894;49.700;10.770;2023-07-29T05:39:09;6.18;;;2.70;;
7703;SDS011;3894;49.700;10.770;2023-07-29T05:44:02;7.70;;;2.72;;
7703;SDS011;3894;49.700;10.770;2023-07-29T05:46:28;6.47;;;2.45;;
7703;SDS011;3894;49.700;10.770;2023-07-29T05:48:53;6.00;;;2.65;;
7703;SDS011;3894;49.700;10.770;2023-07-29T05:51:19;8.00;;;2.67;;
7703;SDS011;3894;49.700;10.770;2023-07-29T05:53:44;7.65;;;3.55;;
7703;SDS011;3894;49.700;10.770;2023-07-29T05:56:10;5.82;;;2.42;;
7703;SDS011;3894;49.700;10.770;2023-07-29T05:58:36;6.18;;;2.80;;
7703;SDS011;3894;49.700;10.770;2023-07-29T06:01:01;6.40;;;2.60;;
7703;SDS011;3894;49.700;10.770;2023-07-29T06:03:27;5.55;;;2.65;;
7703;SDS011;3894;49.700;10.770;2023-07-29T06:05:53;6.30;;;2.50;;
7703;SDS011;3894;49.700;10.770;2023-07-29T06:08:19;8.00;;;3.17;;
7703;SDS011;3894;49.700;10.770;2023-07-29T06:10:44;6.00;;;2.80;;
7703;SDS011;3894;49.700;10.770;2023-07-29T06:13:10;6.63;;;2.72;;
7703;SDS011;3894;49.700;10.770;2023-07-29T06:15:36;6.30;;;2.85;;
7703;SDS011;3894;49.700;10.770;2023-07-29T06:18:01;6.32;;;2.72;;
7703;SDS011;3894;49.700;10.770;2023-07-29T06:20:27;6.43;;;2.72;;
7703;SDS011;3894;49.700;10.770;2023-07-29T06:22:53;6.00;;;2.92;;
7703;SDS011;3894;49.700;10.770;2023-07-29T06:25:18;6.43;;;2.53;;
7703;SDS011;3894;49.700;10.770;2023-07-29T06:27:44;7.45;;;2.75;;
7703;SDS011;3894;49.700;10.770;2023-07-29T06:30:10;5.63;;;2.67;;
7703;SDS011;3894;49.700;10.770;2023-07-29T06:32:35;8.68;;;2.97;;
7703;SDS011;3894;49.700;10.770;2023-07-29T06:35:01;8.02;;;2.15;;
7703;SDS011;3894;49.700;10.770;2023-07-29T06:37:26;6.53;;;2.47;;
7703;SDS011;3894;49.700;10.770;2023-07-29T06:39:52;8.20;;;2.33;;
7703;SDS011;3894;49.700;10.770;2023-07-29T06:42:17;5.80;;;2.50;;
7703;SDS011;3894;49.700;10.770;2023-07-29T06:44:43;5.60;;;2.35;;
7703;SDS011;3894;49.700;10.770;2023-07-29T06:49:38;8.32;;;2.40;;
7703;SDS011;3894;49.700;10.770;2023-07-29T06:52:03;6.78;;;2.00;;
7703;SDS011;3894;49.700;10.770;2023-07-29T06:54:29;6.15;;;2.33;;
7703;SDS011;3894;49.700;10.770;2023-07-29T06:56:55;6.63;;;2.55;;
7703;SDS011;3894;49.700;10.770;2023-07-29T06:59:20;4.93;;;2.22;;
7703;SDS011;3894;49.700;10.770;2023-07-29T07:01:46;6.28;;;1.98;;
7703;SDS011;3894;49.700;10.770;2023-07-29T07:04:12;7.05;;;2.67;;
7703;SDS011;3894;49.700;10.770;2023-07-29T07:06:37;6.40;;;1.90;;
7703;SDS011;3894;49.700;10.770;2023-07-29T07:09:03;4.70;;;1.90;;
7703;SDS011;3894;49.700;10.770;2023-07-29T07:11:29;5.53;;;1.73;;
7703;SDS011;3894;49.700;10.770;2023-07-29T07:13:55;5.05;;;2.30;;
7703;SDS011;3894;49.700;10.770;2023-07-29T07:16:21;5.03;;;1.35;;
7703;SDS011;3894;49.700;10.770;2023-07-29T07:18:46;4.93;;;2.03;;
7703;SDS011;3894;49.700;10.770;2023-07-29T07:21:12;5.90;;;2.17;;
7703;SDS011;3894;49.700;10.770;2023-07-29T07:23:38;5.95;;;2.10;;
7703;SDS011;3894;49.700;10.770;2023-07-29T07:26:04;5.20;;;1.98;;
7703;SDS011;3894;49.700;10.770;2023-07-29T07:28:30;5.18;;;1.92;;
7703;SDS011;3894;49.700;10.770;2023-07-29T07:30:55;5.82;;;1.92;;
7703;SDS011;3894;49.700;10.770;2023-07-29T07:33:21;4.95;;;1.50;;
7703;SDS011;3894;49.700;10.770;2023-07-29T07:35:47;6.75;;;1.60;;
7703;SDS011;3894;49.700;10.770;2023-07-29T07:38:12;5.03;;;2.22;;
7703;SDS011;3894;49.700;10.770;2023-07-29T07:40:38;4.63;;;1.55;;
7703;SDS011;3894;49.700;10.770;2023-07-29T07:43:04;4.65;;;1.45;;
7703;SDS011;3894;49.700;10.770;2023-07-29T07:45:29;7.05;;;1.85;;
7703;SDS011;3894;49.700;10.770;2023-07-29T07:47:57;4.22;;;1.30;;
7703;SDS011;3894;49.700;10.770;2023-07-29T07:50:22;5.28;;;1.25;;
7703;SDS011;3894;49.700;10.770;2023-07-29T07:52:49;14.45;;;2.72;;
7703;SDS011;3894;49.700;10.770;2023-07-29T07:55:14;14.85;;;2.15;;
7703;SDS011;3894;49.700;10.770;2023-07-29T07:57:40;3.85;;;0.95;;
7703;SDS011;3894;49.700;10.770;2023-07-29T08:00:06;4.22;;;0.75;;
7703;SDS011;3894;49.700;10.770;2023-07-29T08:02:34;3.90;;;1.17;;
7703;SDS011;3894;49.700;10.770;2023-07-29T08:05:00;3.33;;;0.88;;
7703;SDS011;3894;49.700;10.770;2023-07-29T08:07:25;5.25;;;1.40;;
7703;SDS011;3894;49.700;10.770;2023-07-29T08:09:51;4.63;;;1.40;;
7703;SDS011;3894;49.700;10.770;2023-07-29T08:12:16;4.93;;;1.02;;
7703;SDS011;3894;49.700;10.770;2023-07-29T08:14:42;4.43;;;1.35;;
7703;SDS011;3894;49.700;10.770;2023-07-29T08:17:07;4.43;;;0.90;;
7703;SDS011;3894;49.700;10.770;2023-07-29T08:19:33;3.92;;;0.85;;
7703;SDS011;3894;49.700;10.770;2023-07-29T08:22:02;4.70;;;0.88;;
7703;SDS011;3894;49.700;10.770;2023-07-29T08:24:28;6.15;;;1.98;;
7703;SDS011;3894;49.700;10.770;2023-07-29T08:26:53;5.53;;;1.70;;
7703;SDS011;3894;49.700;10.770;2023-07-29T08:29:19;5.65;;;1.17;;
7703;SDS011;3894;49.700;10.770;2023-07-29T08:31:44;5.80;;;1.27;;
7703;SDS011;3894;49.700;10.770;2023-07-29T08:34:10;4.78;;;1.13;;
7703;SDS011;3894;49.700;10.770;2023-07-29T08:36:35;3.67;;;0.73;;
7703;SDS011;3894;49.700;10.770;2023-07-29T08:39:01;5.20;;;1.10;;
7703;SDS011;3894;49.700;10.770;2023-07-29T08:41:31;3.65;;;0.70;;
7703;SDS011;3894;49.700;10.770;2023-07-29T08:44:23;6.95;;;1.00;;
7703;SDS011;3894;49.700;10.770;2023-07-29T08:46:51;5.68;;;0.93;;
7703;SDS011;3894;49.700;10.770;2023-07-29T08:49:18;4.05;;;0.90;;
7703;SDS011;3894;49.700;10.770;2023-07-29T08:51:47;5.97;;;1.70;;
7703;SDS011;3894;49.700;10.770;2023-07-29T08:54:16;5.55;;;1.38;;
7703;SDS011;3894;49.700;10.770;2023-07-29T08:56:42;4.93;;;1.38;;
7703;SDS011;3894;49.700;10.770;2023-07-29T08:59:10;5.60;;;1.13;;
7703;SDS011;3894;49.700;10.770;2023-07-29T09:01:37;4.20;;;0.88;;
7703;SDS011;3894;49.700;10.770;2023-07-29T09:06:29;3.70;;;0.65;;
7703;SDS011;3894;49.700;10.770;2023-07-29T09:09:00;4.20;;;0.70;;
7703;SDS011;3894;49.700;10.770;2023-07-29T09:11:26;4.30;;;0.90;;
7703;SDS011;3894;49.700;10.770;2023-07-29T09:13:52;5.18;;;1.00;;
7703;SDS011;3894;49.700;10.770;2023-07-29T09:16:18;29.02;;;3.28;;
7703;SDS011;3894;49.700;10.770;2023-07-29T09:18:49;5.68;;;0.52;;
7703;SDS011;3894;49.700;10.770;2023-07-29T09:21:16;3.78;;;0.43;;
7703;SDS011;3894;49.700;10.770;2023-07-29T09:23:43;3.35;;;0.50;;
7703;SDS011;3894;49.700;10.770;2023-07-29T09:26:09;3.05;;;0.52;;
7703;SDS011;3894;49.700;10.770;2023-07-29T09:28:37;2.63;;;0.32;;
7703;SDS011;3894;49.700;10.770;2023-07-29T09:31:03;2.50;;;0.45;;
7703;SDS011;3894;49.700;10.770;2023-07-29T09:33:30;2.83;;;0.50;;
7703;SDS011;3894;49.700;10.770;2023-07-29T09:36:01;3.17;;;0.60;;
7703;SDS011;3894;49.700;10.770;2023-07-29T09:38:36;2.90;;;0.57;;
7703;SDS011;3894;49.700;10.770;2023-07-29T09:41:01;2.80;;;0.32;;
7703;SDS011;3894;49.700;10.770;2023-07-29T09:43:31;3.55;;;0.50;;
7703;SDS011;3894;49.700;10.770;2023-07-29T09:46:01;2.97;;;0.43;;
7703;SDS011;3894;49.700;10.770;2023-07-29T09:48:28;3.65;;;0.40;;
7703;SDS011;3894;49.700;10.770;2023-07-29T09:50:57;3.17;;;0.63;;
7703;SDS011;3894;49.700;10.770;2023-07-29T09:53:22;3.17;;;0.43;;
7703;SDS011;3894;49.700;10.770;2023-07-29T09:55:49;3.50;;;0.60;;
7703;SDS011;3894;49.700;10.770;2023-07-29T09:58:19;3.20;;;0.60;;
7703;SDS011;3894;49.700;10.770;2023-07-29T10:00:51;3.13;;;0.60;;
7703;SDS011;3894;49.700;10.770;2023-07-29T10:03:18;3.50;;;0.50;;
7703;SDS011;3894;49.700;10.770;2023-07-29T10:05:45;2.75;;;0.50;;
7703;SDS011;3894;49.700;10.770;2023-07-29T10:08:11;4.03;;;0.57;;
7703;SDS011;3894;49.700;10.770;2023-07-29T10:10:38;4.93;;;0.88;;
7703;SDS011;3894;49.700;10.770;2023-07-29T10:13:05;4.30;;;0.80;;
7703;SDS011;3894;49.700;10.770;2023-07-29T10:15:32;3.15;;;0.63;;
7703;SDS011;3894;49.700;10.770;2023-07-29T10:17:58;4.25;;;0.70;;
7703;SDS011;3894;49.700;10.770;2023-07-29T10:20:24;3.53;;;0.73;;
7703;SDS011;3894;49.700;10.770;2023-07-29T10:22:50;3.63;;;0.88;;
7703;SDS011;3894;49.700;10.770;2023-07-29T10:25:24;3.22;;;0.80;;
7703;SDS011;3894;49.700;10.770;2023-07-29T10:28:04;3.97;;;0.88;;
7703;SDS011;3894;49.700;10.770;2023-07-29T10:30:31;4.20;;;0.75;;
7703;SDS011;3894;49.700;10.770;2023-07-29T10:32:58;2.42;;;0.50;;
7703;SDS011;3894;49.700;10.770;2023-07-29T10:35:27;3.63;;;0.85;;
7703;SDS011;3894;49.700;10.770;2023-07-29T10:37:53;5.60;;;0.70;;
7703;SDS011;3894;49.700;10.770;2023-07-29T10:42:59;4.38;;;0.70;;
7703;SDS011;3894;49.700;10.770;2023-07-29T10:45:38;6.32;;;1.02;;
7703;SDS011;3894;49.700;10.770;2023-07-29T10:48:06;4.78;;;0.90;;
7703;SDS011;3894;49.700;10.770;2023-07-29T10:50:35;3.95;;;0.70;;
7703;SDS011;3894;49.700;10.770;2023-07-29T10:53:01;5.60;;;1.00;;
7703;SDS011;3894;49.700;10.770;2023-07-29T10:55:28;7.82;;;1.10;;
7703;SDS011;3894;49.700;10.770;2023-07-29T11:00:31;4.85;;;0.93;;
7703;SDS011;3894;49.700;10.770;2023-07-29T11:03:01;4.78;;;0.65;;
7703;SDS011;3894;49.700;10.770;2023-07-29T11:05:46;4.97;;;0.80;;
7703;SDS011;3894;49.700;10.770;2023-07-29T11:08:19;4.30;;;1.05;;
7703;SDS011;3894;49.700;10.770;2023-07-29T11:11:05;3.78;;;0.82;;
7703;SDS011;3894;49.700;10.770;2023-07-29T11:13:36;4.15;;;1.30;;
7703;SDS011;3894;49.700;10.770;2023-07-29T11:16:03;4.13;;;1.20;;
7703;SDS011;3894;49.700;10.770;2023-07-29T11:18:33;3.28;;;1.00;;
7703;SDS011;3894;49.700;10.770;2023-07-29T11:21:00;4.35;;;1.10;;
7703;SDS011;3894;49.700;10.770;2023-07-29T11:23:27;5.22;;;1.40;;
7703;SDS011;3894;49.700;10.770;2023-07-29T11:25:57;3.60;;;1.10;;
7703;SDS011;3894;49.700;10.770;2023-07-29T11:28:24;4.10;;;1.13;;
7703;SDS011;3894;49.700;10.770;2023-07-29T11:30:50;3.10;;;0.50;;
7703;SDS011;3894;49.700;10.770;2023-07-29T11:33:20;3.97;;;1.00;;
7703;SDS011;3894;49.700;10.770;2023-07-29T11:35:48;4.85;;;1.02;;
7703;SDS011;3894;49.700;10.770;2023-07-29T11:38:18;3.20;;;0.80;;
7703;SDS011;3894;49.700;10.770;2023-07-29T11:40:54;4.07;;;0.90;;
7703;SDS011;3894;49.700;10.770;2023-07-29T11:43:21;3.22;;;0.77;;
7703;SDS011;3894;49.700;10.770;2023-07-29T11:45:47;3.70;;;0.77;;
7703;SDS011;3894;49.700;10.770;2023-07-29T11:48:12;3.08;;;0.80;;
7703;SDS011;3894;49.700;10.770;2023-07-29T11:50:38;3.58;;;0.60;;
7703;SDS011;3894;49.700;10.770;2023-07-29T11:53:04;3.70;;;0.82;;
7703;SDS011;3894;49.700;10.770;2023-07-29T11:55:30;3.22;;;1.02;;
7703;SDS011;3894;49.700;10.770;2023-07-29T11:57:55;2.92;;;0.75;;
7703;SDS011;3894;49.700;10.770;2023-07-29T12:00:22;4.68;;;1.15;;
7703;SDS011;3894;49.700;10.770;2023-07-29T12:02:47;3.50;;;0.65;;
7703;SDS011;3894;49.700;10.770;2023-07-29T12:05:14;3.55;;;0.75;;
7703;SDS011;3894;49.700;10.770;2023-07-29T12:07:41;4.22;;;1.10;;
7703;SDS011;3894;49.700;10.770;2023-07-29T12:12:38;4.43;;;0.70;;
7703;SDS011;3894;49.700;10.770;2023-07-29T12:17:47;2.95;;;0.47;;
7703;SDS011;3894;49.700;10.770;2023-07-29T12:20:13;3.20;;;0.73;;
7703;SDS011;3894;49.700;10.770;2023-07-29T12:22:38;3.40;;;0.65;;
7703;SDS011;3894;49.700;10.770;2023-07-29T12:25:04;3.00;;;0.60;;
7703;SDS011;3894;49.700;10.770;2023-07-29T12:27:30;4.15;;;0.90;;
7703;SDS011;3894;49.700;10.770;2023-07-29T12:29:56;2.78;;;0.43;;
7703;SDS011;3894;49.700;10.770;2023-07-29T12:32:25;3.67;;;0.85;;
7703;SDS011;3894;49.700;10.770;2023-07-29T12:34:53;3.47;;;0.85;;
7703;SDS011;3894;49.700;10.770;2023-07-29T12:37:18;3.30;;;1.02;;
7703;SDS011;3894;49.700;10.770;2023-07-29T12:39:44;4.13;;;1.08;;
7703;SDS011;3894;49.700;10.770;2023-07-29T12:42:10;4.55;;;0.68;;
7703;SDS011;3894;49.700;10.770;2023-07-29T12:44:37;3.92;;;0.88;;
7703;SDS011;3894;49.700;10.770;2023-07-29T12:49:29;3.50;;;0.80;;
7703;SDS011;3894;49.700;10.770;2023-07-29T12:51:56;3.58;;;1.05;;
7703;SDS011;3894;49.700;10.770;2023-07-29T12:54:22;3.85;;;0.88;;
7703;SDS011;3894;49.700;10.770;2023-07-29T12:56:47;3.25;;;0.88;;
7703;SDS011;3894;49.700;10.770;2023-07-29T12:59:13;3.58;;;0.70;;
7703;SDS011;3894;49.700;10.770;2023-07-29T13:01:39;3.00;;;0.63;;
7703;SDS011;3894;49.700;10.770;2023-07-29T13:04:04;3.03;;;0.82;;
7703;SDS011;3894;49.700;10.770;2023-07-29T13:06:30;4.20;;;0.82;;
7703;SDS011;3894;49.700;10.770;2023-07-29T13:08:55;3.08;;;0.80;;
7703;SDS011;3894;49.700;10.770;2023-07-29T13:11:21;3.00;;;0.77;;
7703;SDS011;3894;49.700;10.770;2023-07-29T13:13:47;3.70;;;0.55;;
7703;SDS011;3894;49.700;10.770;2023-07-29T13:16:12;3.30;;;0.73;;
7703;SDS011;3894;49.700;10.770;2023-07-29T13:18:38;3.08;;;0.70;;
7703;SDS011;3894;49.700;10.770;2023-07-29T13:21:04;3.05;;;0.75;;
7703;SDS011;3894;49.700;10.770;2023-07-29T13:23:30;3.45;;;1.00;;
7703;SDS011;3894;49.700;10.770;2023-07-29T13:25:56;3.22;;;0.80;;
7703;SDS011;3894;49.700;10.770;2023-07-29T13:28:22;3.13;;;0.77;;
7703;SDS011;3894;49.700;10.770;2023-07-29T13:30:48;3.92;;;1.00;;
7703;SDS011;3894;49.700;10.770;2023-07-29T13:33:14;3.92;;;1.00;;
7703;SDS011;3894;49.700;10.770;2023-07-29T13:35:39;3.33;;;0.52;;
7703;SDS011;3894;49.700;10.770;2023-07-29T13:38:05;2.85;;;0.55;;
7703;SDS011;3894;49.700;10.770;2023-07-29T13:40:31;4.28;;;1.10;;
7703;SDS011;3894;49.700;10.770;2023-07-29T13:42:57;3.00;;;0.70;;
7703;SDS011;3894;49.700;10.770;2023-07-29T13:45:22;3.03;;;0.55;;
7703;SDS011;3894;49.700;10.770;2023-07-29T13:47:48;2.78;;;0.52;;
7703;SDS011;3894;49.700;10.770;2023-07-29T13:50:15;3.28;;;0.50;;
7703;SDS011;3894;49.700;10.770;2023-07-29T13:52:41;3.55;;;0.68;;
7703;SDS011;3894;49.700;10.770;2023-07-29T13:55:06;3.85;;;0.82;;
7703;SDS011;3894;49.700;10.770;2023-07-29T13:57:32;3.10;;;0.55;;
7703;SDS011;3894;49.700;10.770;2023-07-29T13:59:58;3.25;;;0.73;;
7703;SDS011;3894;49.700;10.770;2023-07-29T14:02:24;2.72;;;0.55;;
7703;SDS011;3894;49.700;10.770;2023-07-29T14:04:51;3.72;;;0.50;;
7703;SDS011;3894;49.700;10.770;2023-07-29T14:07:17;3.53;;;0.75;;
7703;SDS011;3894;49.700;10.770;2023-07-29T14:09:42;4.95;;;1.83;;
7703;SDS011;3894;49.700;10.770;2023-07-29T14:12:08;4.47;;;0.98;;
7703;SDS011;3894;49.700;10.770;2023-07-29T14:14:39;3.33;;;0.63;;
7703;SDS011;3894;49.700;10.770;2023-07-29T14:17:05;3.60;;;0.70;;
7703;SDS011;3894;49.700;10.770;2023-07-29T14:19:32;8.00;;;1.48;;
7703;SDS011;3894;49.700;10.770;2023-07-29T14:21:57;4.53;;;0.70;;
7703;SDS011;3894;49.700;10.770;2023-07-29T14:24:23;7.30;;;1.08;;
7703;SDS011;3894;49.700;10.770;2023-07-29T14:26:48;3.65;;;0.77;;
7703;SDS011;3894;49.700;10.770;2023-07-29T14:29:14;3.83;;;0.82;;
7703;SDS011;3894;49.700;10.770;2023-07-29T14:31:40;3.67;;;0.75;;
7703;SDS011;3894;49.700;10.770;2023-07-29T14:34:05;3.65;;;0.75;;
7703;SDS011;3894;49.700;10.770;2023-07-29T14:36:31;4.53;;;0.82;;
7703;SDS011;3894;49.700;10.770;2023-07-29T14:38:56;6.80;;;1.05;;
7703;SDS011;3894;49.700;10.770;2023-07-29T14:41:22;4.38;;;0.90;;
7703;SDS011;3894;49.700;10.770;2023-07-29T14:43:47;4.30;;;1.52;;
7703;SDS011;3894;49.700;10.770;2023-07-29T14:46:13;4.93;;;1.00;;
7703;SDS011;3894;49.700;10.770;2023-07-29T14:48:38;4.45;;;0.88;;
7703;SDS011;3894;49.700;10.770;2023-07-29T14:51:04;5.57;;;0.90;;
7703;SDS011;3894;49.700;10.770;2023-07-29T14:53:29;5.35;;;0.80;;
7703;SDS011;3894;49.700;10.770;2023-07-29T14:55:55;4.10;;;1.00;;
7703;SDS011;3894;49.700;10.770;2023-07-29T14:58:21;4.28;;;1.10;;
7703;SDS011;3894;49.700;10.770;2023-07-29T15:00:46;3.15;;;0.90;;
7703;SDS011;3894;49.700;10.770;2023-07-29T15:03:12;4.32;;;0.90;;
7703;SDS011;3894;49.700;10.770;2023-07-29T15:05:37;5.30;;;1.00;;
7703;SDS011;3894;49.700;10.770;2023-07-29T15:08:03;3.60;;;0.75;;
7703;SDS011;3894;49.700;10.770;2023-07-29T15:10:29;3.40;;;0.73;;
7703;SDS011;3894;49.700;10.770;2023-07-29T15:12:54;3.03;;;0.70;;
7703;SDS011;3894;49.700;10.770;2023-07-29T15:15:20;3.03;;;0.73;;
7703;SDS011;3894;49.700;10.770;2023-07-29T15:17:45;3.25;;;0.73;;
7703;SDS011;3894;49.700;10.770;2023-07-29T15:20:11;3.05;;;0.65;;
7703;SDS011;3894;49.700;10.770;2023-07-29T15:22:37;3.65;;;1.02;;